sensor_id;sensor_type;location;lat;lon;timestamp;P1;durP1;ratioP1;P2;durP2;ratioP2
13255;SDS011;37913;48.370;10.930;2022-09-09T00:01:49;94.57;;;39.45;;
13255;SDS011;37913;48.370;10.930;2022-09-09T00:04:23;103.10;;;41.28;;
13255;SDS011;37913;48.370;10.930;2022-09-09T00:06:56;88.25;;;38.53;;
13255;SDS011;37913;48.370;10.930;2022-09-09T00:09:29;88.60;;;38.85;;
13255;SDS011;37913;48.370;10.930;2022-09-09T00:12:05;84.25;;;37.85;;
13255;SDS011;37913;48.370;10.930;2022-09-09T00:14:39;91.10;;;38.60;;
13255;SDS011;37913;48.370;10.930;2022-09-09T00:17:14;90.95;;;39.55;;
13255;SDS011;37913;48.370;10.930;2022-09-09T00:19:52;97.55;;;39.58;;
13255;SDS011;37913;48.370;10.930;2022-09-09T00:22:23;87.50;;;38.25;;
13255;SDS011;37913;48.370;10.930;2022-09-09T00:24:54;117.53;;;43.15;;
13255;SDS011;37913;48.370;10.930;2022-09-09T00:27:24;87.05;;;38.42;;
13255;SDS011;37913;48.370;10.930;2022-09-09T00:29:56;92.90;;;39.58;;
13255;SDS011;37913;48.370;10.930;2022-09-09T00:32:29;84.80;;;38.35;;
13255;SDS011;37913;48.370;10.930;2022-09-09T00:35:02;87.38;;;38.05;;
13255;SDS011;37913;48.370;10.930;2022-09-09T00:37:37;89.63;;;38.65;;
13255;SDS011;37913;48.370;10.930;2022-09-09T00:40:07;95.25;;;39.72;;
13255;SDS011;37913;48.370;10.930;2022-09-09T00:42:47;86.63;;;37.67;;
13255;SDS011;37913;48.370;10.930;2022-09-09T00:45:32;82.00;;;37.08;;
13255;SDS011;37913;48.370;10.930;2022-09-09T00:48:10;79.68;;;36.70;;
13255;SDS011;37913;48.370;10.930;2022-09-09T00:50:41;105.55;;;42.22;;
13255;SDS011;37913;48.370;10.930;2022-09-09T00:53:22;100.95;;;41.47;;
13255;SDS011;37913;48.370;10.930;2022-09-09T00:55:58;91.25;;;39.95;;
13255;SDS011;37913;48.370;10.930;2022-09-09T00:58:35;87.38;;;39.15;;
13255;SDS011;37913;48.370;10.930;2022-09-09T01:01:03;96.47;;;40.42;;
13255;SDS011;37913;48.370;10.930;2022-09-09T01:03:37;90.45;;;39.20;;
13255;SDS011;37913;48.370;10.930;2022-09-09T01:06:15;89.72;;;39.60;;
13255;SDS011;37913;48.370;10.930;2022-09-09T01:11:43;85.70;;;40.20;;
13255;SDS011;37913;48.370;10.930;2022-09-09T01:14:20;89.25;;;40.92;;
13255;SDS011;37913;48.370;10.930;2022-09-09T01:16:56;91.95;;;40.90;;
13255;SDS011;37913;48.370;10.930;2022-09-09T01:19:35;89.05;;;39.55;;
13255;SDS011;37913;48.370;10.930;2022-09-09T01:22:08;95.13;;;40.50;;
13255;SDS011;37913;48.370;10.930;2022-09-09T01:24:42;103.78;;;41.75;;
13255;SDS011;37913;48.370;10.930;2022-09-09T01:27:20;98.32;;;41.25;;
13255;SDS011;37913;48.370;10.930;2022-09-09T01:29:50;91.70;;;40.28;;
13255;SDS011;37913;48.370;10.930;2022-09-09T01:32:37;88.55;;;38.80;;
13255;SDS011;37913;48.370;10.930;2022-09-09T01:35:07;90.97;;;39.85;;
13255;SDS011;37913;48.370;10.930;2022-09-09T01:37:39;113.18;;;44.17;;
13255;SDS011;37913;48.370;10.930;2022-09-09T01:40:07;80.30;;;37.45;;
13255;SDS011;37913;48.370;10.930;2022-09-09T01:42:35;91.93;;;39.83;;
13255;SDS011;37913;48.370;10.930;2022-09-09T01:45:03;78.88;;;37.65;;
13255;SDS011;37913;48.370;10.930;2022-09-09T01:47:31;91.07;;;40.13;;
13255;SDS011;37913;48.370;10.930;2022-09-09T01:49:58;89.13;;;40.47;;
13255;SDS011;37913;48.370;10.930;2022-09-09T01:52:26;87.18;;;39.45;;
13255;SDS011;37913;48.370;10.930;2022-09-09T01:54:53;105.22;;;41.50;;
13255;SDS011;37913;48.370;10.930;2022-09-09T01:57:21;93.55;;;39.95;;
13255;SDS011;37913;48.370;10.930;2022-09-09T01:59:57;85.47;;;38.60;;
13255;SDS011;37913;48.370;10.930;2022-09-09T02:02:30;87.85;;;39.67;;
13255;SDS011;37913;48.370;10.930;2022-09-09T02:05:04;90.03;;;40.08;;
13255;SDS011;37913;48.370;10.930;2022-09-09T02:07:42;95.65;;;40.20;;
13255;SDS011;37913;48.370;10.930;2022-09-09T02:10:15;86.10;;;38.90;;
13255;SDS011;37913;48.370;10.930;2022-09-09T02:12:46;80.40;;;38.95;;
13255;SDS011;37913;48.370;10.930;2022-09-09T02:15:18;94.88;;;40.88;;
13255;SDS011;37913;48.370;10.930;2022-09-09T02:17:52;90.28;;;40.38;;
13255;SDS011;37913;48.370;10.930;2022-09-09T02:20:20;89.22;;;39.47;;
13255;SDS011;37913;48.370;10.930;2022-09-09T02:22:51;88.60;;;38.45;;
13255;SDS011;37913;48.370;10.930;2022-09-09T02:25:20;84.45;;;38.28;;
13255;SDS011;37913;48.370;10.930;2022-09-09T02:27:50;86.43;;;38.95;;
13255;SDS011;37913;48.370;10.930;2022-09-09T02:30:19;82.88;;;37.55;;
13255;SDS011;37913;48.370;10.930;2022-09-09T02:32:46;84.53;;;38.38;;
13255;SDS011;37913;48.370;10.930;2022-09-09T02:35:17;90.25;;;39.00;;
13255;SDS011;37913;48.370;10.930;2022-09-09T02:37:47;94.03;;;39.55;;
13255;SDS011;37913;48.370;10.930;2022-09-09T02:40:15;87.15;;;38.25;;
13255;SDS011;37913;48.370;10.930;2022-09-09T02:42:42;86.57;;;38.60;;
13255;SDS011;37913;48.370;10.930;2022-09-09T02:45:11;91.60;;;38.70;;
13255;SDS011;37913;48.370;10.930;2022-09-09T02:47:43;88.82;;;38.80;;
13255;SDS011;37913;48.370;10.930;2022-09-09T02:50:17;87.78;;;38.33;;
13255;SDS011;37913;48.370;10.930;2022-09-09T02:52:52;86.95;;;38.50;;
13255;SDS011;37913;48.370;10.930;2022-09-09T02:55:28;90.88;;;39.25;;
13255;SDS011;37913;48.370;10.930;2022-09-09T02:58:04;86.93;;;37.72;;
13255;SDS011;37913;48.370;10.930;2022-09-09T03:00:34;80.80;;;38.28;;
13255;SDS011;37913;48.370;10.930;2022-09-09T03:03:03;85.18;;;37.85;;
13255;SDS011;37913;48.370;10.930;2022-09-09T03:05:33;87.68;;;38.58;;
13255;SDS011;37913;48.370;10.930;2022-09-09T03:08:00;93.35;;;39.40;;
13255;SDS011;37913;48.370;10.930;2022-09-09T03:10:28;75.50;;;36.63;;
13255;SDS011;37913;48.370;10.930;2022-09-09T03:12:55;94.20;;;39.15;;
13255;SDS011;37913;48.370;10.930;2022-09-09T03:15:22;76.65;;;36.63;;
13255;SDS011;37913;48.370;10.930;2022-09-09T03:17:49;81.18;;;37.42;;
13255;SDS011;37913;48.370;10.930;2022-09-09T03:20:17;91.13;;;38.65;;
13255;SDS011;37913;48.370;10.930;2022-09-09T03:22:44;92.10;;;39.03;;
13255;SDS011;37913;48.370;10.930;2022-09-09T03:25:11;86.07;;;37.75;;
13255;SDS011;37913;48.370;10.930;2022-09-09T03:27:38;85.22;;;37.90;;
13255;SDS011;37913;48.370;10.930;2022-09-09T03:30:05;91.20;;;38.70;;
13255;SDS011;37913;48.370;10.930;2022-09-09T03:32:33;85.35;;;38.08;;
13255;SDS011;37913;48.370;10.930;2022-09-09T03:35:00;99.68;;;40.28;;
13255;SDS011;37913;48.370;10.930;2022-09-09T03:37:28;88.47;;;38.17;;
13255;SDS011;37913;48.370;10.930;2022-09-09T03:39:56;94.65;;;39.35;;
13255;SDS011;37913;48.370;10.930;2022-09-09T03:42:24;86.30;;;37.50;;
13255;SDS011;37913;48.370;10.930;2022-09-09T03:44:52;99.43;;;41.03;;
13255;SDS011;37913;48.370;10.930;2022-09-09T03:47:19;93.57;;;39.63;;
13255;SDS011;37913;48.370;10.930;2022-09-09T03:49:47;87.25;;;38.20;;
13255;SDS011;37913;48.370;10.930;2022-09-09T03:52:14;86.03;;;37.50;;
13255;SDS011;37913;48.370;10.930;2022-09-09T03:54:44;89.65;;;39.00;;
13255;SDS011;37913;48.370;10.930;2022-09-09T03:57:11;90.97;;;39.15;;
13255;SDS011;37913;48.370;10.930;2022-09-09T03:59:41;82.05;;;37.13;;
13255;SDS011;37913;48.370;10.930;2022-09-09T04:02:08;82.82;;;37.10;;
13255;SDS011;37913;48.370;10.930;2022-09-09T04:04:35;86.05;;;37.80;;
13255;SDS011;37913;48.370;10.930;2022-09-09T04:07:02;89.03;;;38.22;;
13255;SDS011;37913;48.370;10.930;2022-09-09T04:09:31;79.07;;;36.42;;
13255;SDS011;37913;48.370;10.930;2022-09-09T04:12:01;82.43;;;36.92;;
13255;SDS011;37913;48.370;10.930;2022-09-09T04:14:29;72.28;;;35.13;;
13255;SDS011;37913;48.370;10.930;2022-09-09T04:16:56;88.13;;;37.83;;
13255;SDS011;37913;48.370;10.930;2022-09-09T04:19:24;89.97;;;38.88;;
13255;SDS011;37913;48.370;10.930;2022-09-09T04:21:51;85.75;;;38.42;;
13255;SDS011;37913;48.370;10.930;2022-09-09T04:24:18;94.63;;;40.22;;
13255;SDS011;37913;48.370;10.930;2022-09-09T04:26:46;91.68;;;39.72;;
13255;SDS011;37913;48.370;10.930;2022-09-09T04:29:14;88.28;;;38.65;;
13255;SDS011;37913;48.370;10.930;2022-09-09T04:31:41;92.35;;;39.65;;
13255;SDS011;37913;48.370;10.930;2022-09-09T04:34:08;87.63;;;38.83;;
13255;SDS011;37913;48.370;10.930;2022-09-09T04:36:35;80.03;;;37.47;;
13255;SDS011;37913;48.370;10.930;2022-09-09T04:39:02;81.10;;;37.90;;
13255;SDS011;37913;48.370;10.930;2022-09-09T04:41:29;72.25;;;35.63;;
13255;SDS011;37913;48.370;10.930;2022-09-09T04:43:56;87.68;;;38.70;;
13255;SDS011;37913;48.370;10.930;2022-09-09T04:46:25;84.15;;;37.53;;
13255;SDS011;37913;48.370;10.930;2022-09-09T04:48:52;89.55;;;38.88;;
13255;SDS011;37913;48.370;10.930;2022-09-09T04:51:19;92.47;;;39.30;;
13255;SDS011;37913;48.370;10.930;2022-09-09T04:53:46;86.93;;;37.45;;
13255;SDS011;37913;48.370;10.930;2022-09-09T04:56:15;86.82;;;38.17;;
13255;SDS011;37913;48.370;10.930;2022-09-09T04:58:43;89.70;;;38.85;;
13255;SDS011;37913;48.370;10.930;2022-09-09T05:01:11;84.53;;;38.15;;
13255;SDS011;37913;48.370;10.930;2022-09-09T05:03:41;85.97;;;38.05;;
13255;SDS011;37913;48.370;10.930;2022-09-09T05:06:11;84.10;;;37.75;;
13255;SDS011;37913;48.370;10.930;2022-09-09T05:08:39;89.15;;;38.03;;
13255;SDS011;37913;48.370;10.930;2022-09-09T05:11:13;88.53;;;38.95;;
13255;SDS011;37913;48.370;10.930;2022-09-09T05:13:41;86.10;;;42.30;;
13255;SDS011;37913;48.370;10.930;2022-09-09T05:16:08;90.70;;;38.97;;
13255;SDS011;37913;48.370;10.930;2022-09-09T05:18:36;85.40;;;37.50;;
13255;SDS011;37913;48.370;10.930;2022-09-09T05:21:04;80.63;;;37.10;;
13255;SDS011;37913;48.370;10.930;2022-09-09T05:23:31;83.13;;;37.38;;
13255;SDS011;37913;48.370;10.930;2022-09-09T05:25:59;86.80;;;38.03;;
13255;SDS011;37913;48.370;10.930;2022-09-09T05:28:26;90.20;;;38.70;;
13255;SDS011;37913;48.370;10.930;2022-09-09T05:30:57;89.72;;;38.95;;
13255;SDS011;37913;48.370;10.930;2022-09-09T05:33:25;90.97;;;39.20;;
13255;SDS011;37913;48.370;10.930;2022-09-09T05:35:59;86.28;;;38.30;;
13255;SDS011;37913;48.370;10.930;2022-09-09T05:38:28;94.93;;;39.95;;
13255;SDS011;37913;48.370;10.930;2022-09-09T05:40:55;88.22;;;38.97;;
13255;SDS011;37913;48.370;10.930;2022-09-09T05:43:23;89.72;;;39.42;;
13255;SDS011;37913;48.370;10.930;2022-09-09T05:45:58;89.03;;;39.35;;
13255;SDS011;37913;48.370;10.930;2022-09-09T05:48:27;94.50;;;40.97;;
13255;SDS011;37913;48.370;10.930;2022-09-09T05:50:56;97.97;;;41.03;;
13255;SDS011;37913;48.370;10.930;2022-09-09T05:53:22;89.40;;;39.13;;
13255;SDS011;37913;48.370;10.930;2022-09-09T05:55:57;95.03;;;40.22;;
13255;SDS011;37913;48.370;10.930;2022-09-09T05:58:24;89.93;;;38.63;;
13255;SDS011;37913;48.370;10.930;2022-09-09T06:00:51;87.63;;;38.85;;
13255;SDS011;37913;48.370;10.930;2022-09-09T06:03:20;101.95;;;41.30;;
13255;SDS011;37913;48.370;10.930;2022-09-09T06:05:56;85.28;;;39.15;;
13255;SDS011;37913;48.370;10.930;2022-09-09T06:08:23;81.65;;;38.13;;
13255;SDS011;37913;48.370;10.930;2022-09-09T06:10:52;75.88;;;36.95;;
13255;SDS011;37913;48.370;10.930;2022-09-09T06:13:19;89.60;;;39.53;;
13255;SDS011;37913;48.370;10.930;2022-09-09T06:15:49;78.93;;;37.85;;
13255;SDS011;37913;48.370;10.930;2022-09-09T06:18:17;78.38;;;37.88;;
13255;SDS011;37913;48.370;10.930;2022-09-09T06:20:52;92.38;;;40.42;;
13255;SDS011;37913;48.370;10.930;2022-09-09T06:23:20;80.47;;;38.22;;
13255;SDS011;37913;48.370;10.930;2022-09-09T06:25:46;83.03;;;38.63;;
13255;SDS011;37913;48.370;10.930;2022-09-09T06:28:16;86.65;;;39.38;;
13255;SDS011;37913;48.370;10.930;2022-09-09T06:30:44;92.15;;;39.80;;
13255;SDS011;37913;48.370;10.930;2022-09-09T06:33:12;88.53;;;40.10;;
13255;SDS011;37913;48.370;10.930;2022-09-09T06:35:39;85.70;;;39.67;;
13255;SDS011;37913;48.370;10.930;2022-09-09T06:38:06;85.20;;;39.47;;
13255;SDS011;37913;48.370;10.930;2022-09-09T06:40:33;91.80;;;40.70;;
13255;SDS011;37913;48.370;10.930;2022-09-09T06:43:00;89.05;;;40.20;;
13255;SDS011;37913;48.370;10.930;2022-09-09T06:45:28;89.30;;;40.65;;
13255;SDS011;37913;48.370;10.930;2022-09-09T06:47:56;85.13;;;39.42;;
13255;SDS011;37913;48.370;10.930;2022-09-09T06:50:23;79.68;;;39.13;;
13255;SDS011;37913;48.370;10.930;2022-09-09T06:52:50;85.70;;;40.00;;
13255;SDS011;37913;48.370;10.930;2022-09-09T06:55:17;90.13;;;41.13;;
13255;SDS011;37913;48.370;10.930;2022-09-09T06:57:44;87.55;;;40.35;;
13255;SDS011;37913;48.370;10.930;2022-09-09T07:00:11;94.97;;;42.28;;
13255;SDS011;37913;48.370;10.930;2022-09-09T07:02:41;92.07;;;41.15;;
13255;SDS011;37913;48.370;10.930;2022-09-09T07:05:08;84.05;;;40.42;;
13255;SDS011;37913;48.370;10.930;2022-09-09T07:07:35;89.85;;;40.92;;
13255;SDS011;37913;48.370;10.930;2022-09-09T07:10:03;87.28;;;40.50;;
13255;SDS011;37913;48.370;10.930;2022-09-09T07:12:30;87.07;;;40.50;;
13255;SDS011;37913;48.370;10.930;2022-09-09T07:14:57;100.38;;;42.83;;
13255;SDS011;37913;48.370;10.930;2022-09-09T07:17:24;88.47;;;40.72;;
13255;SDS011;37913;48.370;10.930;2022-09-09T07:19:52;87.93;;;40.17;;
13255;SDS011;37913;48.370;10.930;2022-09-09T07:22:19;94.07;;;45.75;;
13255;SDS011;37913;48.370;10.930;2022-09-09T07:24:46;97.85;;;41.55;;
13255;SDS011;37913;48.370;10.930;2022-09-09T07:27:14;88.57;;;40.75;;
13255;SDS011;37913;48.370;10.930;2022-09-09T07:29:41;88.90;;;40.70;;
13255;SDS011;37913;48.370;10.930;2022-09-09T07:32:08;88.75;;;40.53;;
13255;SDS011;37913;48.370;10.930;2022-09-09T07:34:35;102.28;;;43.38;;
13255;SDS011;37913;48.370;10.930;2022-09-09T07:37:03;89.97;;;40.97;;
13255;SDS011;37913;48.370;10.930;2022-09-09T07:39:30;80.93;;;39.42;;
13255;SDS011;37913;48.370;10.930;2022-09-09T07:41:57;91.05;;;41.85;;
13255;SDS011;37913;48.370;10.930;2022-09-09T07:44:24;99.18;;;41.97;;
13255;SDS011;37913;48.370;10.930;2022-09-09T07:46:51;88.13;;;40.42;;
13255;SDS011;37913;48.370;10.930;2022-09-09T07:49:19;87.82;;;40.30;;
13255;SDS011;37913;48.370;10.930;2022-09-09T07:51:46;84.18;;;39.80;;
13255;SDS011;37913;48.370;10.930;2022-09-09T07:54:17;84.15;;;39.70;;
13255;SDS011;37913;48.370;10.930;2022-09-09T07:56:48;90.25;;;40.88;;
13255;SDS011;37913;48.370;10.930;2022-09-09T07:59:15;90.43;;;40.95;;
13255;SDS011;37913;48.370;10.930;2022-09-09T08:01:44;93.28;;;41.45;;
13255;SDS011;37913;48.370;10.930;2022-09-09T08:04:13;92.18;;;40.95;;
13255;SDS011;37913;48.370;10.930;2022-09-09T08:06:42;85.28;;;40.28;;
13255;SDS011;37913;48.370;10.930;2022-09-09T08:09:11;101.55;;;43.97;;
13255;SDS011;37913;48.370;10.930;2022-09-09T08:11:40;87.35;;;41.13;;
13255;SDS011;37913;48.370;10.930;2022-09-09T08:14:08;88.07;;;40.50;;
13255;SDS011;37913;48.370;10.930;2022-09-09T08:16:37;90.10;;;41.55;;
13255;SDS011;37913;48.370;10.930;2022-09-09T08:19:05;90.00;;;41.60;;
13255;SDS011;37913;48.370;10.930;2022-09-09T08:21:33;91.28;;;42.33;;
13255;SDS011;37913;48.370;10.930;2022-09-09T08:24:02;89.57;;;42.38;;
13255;SDS011;37913;48.370;10.930;2022-09-09T08:26:30;88.45;;;42.35;;
13255;SDS011;37913;48.370;10.930;2022-09-09T08:29:01;89.90;;;44.40;;
13255;SDS011;37913;48.370;10.930;2022-09-09T08:31:30;85.55;;;44.28;;
13255;SDS011;37913;48.370;10.930;2022-09-09T08:33:58;86.47;;;50.67;;
13255;SDS011;37913;48.370;10.930;2022-09-09T08:36:27;87.22;;;45.88;;
13255;SDS011;37913;48.370;10.930;2022-09-09T08:38:56;88.75;;;46.25;;
13255;SDS011;37913;48.370;10.930;2022-09-09T08:41:29;93.65;;;47.03;;
13255;SDS011;37913;48.370;10.930;2022-09-09T08:44:12;84.30;;;45.80;;
13255;SDS011;37913;48.370;10.930;2022-09-09T08:46:47;96.78;;;47.80;;
13255;SDS011;37913;48.370;10.930;2022-09-09T08:49:31;88.35;;;46.75;;
13255;SDS011;37913;48.370;10.930;2022-09-09T08:52:14;94.72;;;47.83;;
13255;SDS011;37913;48.370;10.930;2022-09-09T08:54:44;91.60;;;46.63;;
13255;SDS011;37913;48.370;10.930;2022-09-09T08:57:13;84.10;;;45.03;;
13255;SDS011;37913;48.370;10.930;2022-09-09T08:59:46;91.55;;;46.17;;
13255;SDS011;37913;48.370;10.930;2022-09-09T09:02:15;95.55;;;46.65;;
13255;SDS011;37913;48.370;10.930;2022-09-09T09:04:50;97.10;;;46.92;;
13255;SDS011;37913;48.370;10.930;2022-09-09T09:07:28;90.07;;;45.38;;
13255;SDS011;37913;48.370;10.930;2022-09-09T09:10:04;102.63;;;48.20;;
13255;SDS011;37913;48.370;10.930;2022-09-09T09:12:40;100.35;;;46.85;;
13255;SDS011;37913;48.370;10.930;2022-09-09T09:15:14;86.75;;;44.33;;
13255;SDS011;37913;48.370;10.930;2022-09-09T09:17:46;91.00;;;45.25;;
13255;SDS011;37913;48.370;10.930;2022-09-09T09:20:14;90.00;;;45.55;;
13255;SDS011;37913;48.370;10.930;2022-09-09T09:22:44;86.22;;;44.88;;
13255;SDS011;37913;48.370;10.930;2022-09-09T09:25:16;81.82;;;45.03;;
13255;SDS011;37913;48.370;10.930;2022-09-09T09:27:47;91.60;;;46.55;;
13255;SDS011;37913;48.370;10.930;2022-09-09T09:30:22;89.25;;;46.47;;
13255;SDS011;37913;48.370;10.930;2022-09-09T09:32:53;96.55;;;48.60;;
13255;SDS011;37913;48.370;10.930;2022-09-09T09:35:24;95.35;;;48.25;;
13255;SDS011;37913;48.370;10.930;2022-09-09T09:37:51;93.70;;;46.65;;
13255;SDS011;37913;48.370;10.930;2022-09-09T09:40:19;92.30;;;46.58;;
13255;SDS011;37913;48.370;10.930;2022-09-09T09:42:48;78.95;;;43.78;;
13255;SDS011;37913;48.370;10.930;2022-09-09T09:45:20;90.45;;;45.60;;
13255;SDS011;37913;48.370;10.930;2022-09-09T09:48:00;89.07;;;45.60;;
13255;SDS011;37913;48.370;10.930;2022-09-09T09:50:29;90.75;;;46.50;;
13255;SDS011;37913;48.370;10.930;2022-09-09T09:52:57;92.07;;;47.08;;
13255;SDS011;37913;48.370;10.930;2022-09-09T09:55:25;78.93;;;44.50;;
13255;SDS011;37913;48.370;10.930;2022-09-09T09:58:00;94.00;;;46.70;;
13255;SDS011;37913;48.370;10.930;2022-09-09T10:00:29;91.00;;;45.42;;
13255;SDS011;37913;48.370;10.930;2022-09-09T10:02:57;93.57;;;46.35;;
13255;SDS011;37913;48.370;10.930;2022-09-09T10:05:27;92.85;;;46.08;;
13255;SDS011;37913;48.370;10.930;2022-09-09T10:08:02;90.75;;;45.35;;
13255;SDS011;37913;48.370;10.930;2022-09-09T10:10:42;86.82;;;43.65;;
13255;SDS011;37913;48.370;10.930;2022-09-09T10:13:26;87.45;;;43.63;;
13255;SDS011;37913;48.370;10.930;2022-09-09T10:16:01;96.43;;;46.42;;
13255;SDS011;37913;48.370;10.930;2022-09-09T10:18:42;89.65;;;45.85;;
13255;SDS011;37913;48.370;10.930;2022-09-09T10:21:20;90.60;;;46.05;;
13255;SDS011;37913;48.370;10.930;2022-09-09T10:24:11;93.57;;;46.05;;
13255;SDS011;37913;48.370;10.930;2022-09-09T10:26:53;92.25;;;46.17;;
13255;SDS011;37913;48.370;10.930;2022-09-09T10:29:38;86.88;;;45.33;;
13255;SDS011;37913;48.370;10.930;2022-09-09T10:32:24;92.40;;;46.33;;
13255;SDS011;37913;48.370;10.930;2022-09-09T10:35:12;92.20;;;46.70;;
13255;SDS011;37913;48.370;10.930;2022-09-09T10:37:52;90.68;;;46.20;;
13255;SDS011;37913;48.370;10.930;2022-09-09T10:40:37;80.85;;;43.83;;
13255;SDS011;37913;48.370;10.930;2022-09-09T10:43:12;90.25;;;44.92;;
13255;SDS011;37913;48.370;10.930;2022-09-09T10:45:49;87.80;;;44.75;;
13255;SDS011;37913;48.370;10.930;2022-09-09T10:48:40;91.97;;;45.28;;
13255;SDS011;37913;48.370;10.930;2022-09-09T10:51:23;93.88;;;45.63;;
13255;SDS011;37913;48.370;10.930;2022-09-09T10:54:01;89.95;;;44.97;;
13255;SDS011;37913;48.370;10.930;2022-09-09T10:56:40;92.57;;;44.90;;
13255;SDS011;37913;48.370;10.930;2022-09-09T10:59:10;92.60;;;45.25;;
13255;SDS011;37913;48.370;10.930;2022-09-09T11:01:41;88.93;;;44.75;;
13255;SDS011;37913;48.370;10.930;2022-09-09T11:04:15;90.72;;;45.13;;
13255;SDS011;37913;48.370;10.930;2022-09-09T11:06:48;90.40;;;44.92;;
13255;SDS011;37913;48.370;10.930;2022-09-09T11:09:20;89.72;;;44.50;;
13255;SDS011;37913;48.370;10.930;2022-09-09T11:11:50;92.50;;;45.13;;
13255;SDS011;37913;48.370;10.930;2022-09-09T11:14:21;89.50;;;44.85;;
13255;SDS011;37913;48.370;10.930;2022-09-09T11:16:55;94.50;;;45.50;;
13255;SDS011;37913;48.370;10.930;2022-09-09T11:19:28;84.38;;;43.05;;
13255;SDS011;37913;48.370;10.930;2022-09-09T11:22:00;84.60;;;43.47;;
13255;SDS011;37913;48.370;10.930;2022-09-09T11:24:31;92.50;;;45.38;;
13255;SDS011;37913;48.370;10.930;2022-09-09T11:27:06;93.43;;;45.22;;
13255;SDS011;37913;48.370;10.930;2022-09-09T11:29:58;88.03;;;44.03;;
13255;SDS011;37913;48.370;10.930;2022-09-09T11:32:41;84.97;;;43.72;;
13255;SDS011;37913;48.370;10.930;2022-09-09T11:35:29;90.95;;;44.65;;
13255;SDS011;37913;48.370;10.930;2022-09-09T11:40:53;86.13;;;43.90;;
13255;SDS011;37913;48.370;10.930;2022-09-09T11:43:23;74.00;;;40.83;;
13255;SDS011;37913;48.370;10.930;2022-09-09T11:45:54;90.63;;;44.90;;
13255;SDS011;37913;48.370;10.930;2022-09-09T11:48:25;88.63;;;44.92;;
13255;SDS011;37913;48.370;10.930;2022-09-09T11:51:01;91.95;;;45.40;;
13255;SDS011;37913;48.370;10.930;2022-09-09T11:53:30;90.28;;;45.08;;
13255;SDS011;37913;48.370;10.930;2022-09-09T11:56:04;88.97;;;45.53;;
13255;SDS011;37913;48.370;10.930;2022-09-09T11:58:36;82.75;;;45.03;;
13255;SDS011;37913;48.370;10.930;2022-09-09T12:04:01;91.70;;;47.40;;
13255;SDS011;37913;48.370;10.930;2022-09-09T12:06:43;93.85;;;47.70;;
13255;SDS011;37913;48.370;10.930;2022-09-09T12:09:22;83.88;;;45.92;;
13255;SDS011;37913;48.370;10.930;2022-09-09T12:12:04;96.28;;;48.47;;
13255;SDS011;37913;48.370;10.930;2022-09-09T12:14:36;93.75;;;48.08;;
13255;SDS011;37913;48.370;10.930;2022-09-09T12:17:16;96.07;;;49.45;;
13255;SDS011;37913;48.370;10.930;2022-09-09T12:19:45;96.68;;;50.90;;
13255;SDS011;37913;48.370;10.930;2022-09-09T12:22:16;105.18;;;53.38;;
13255;SDS011;37913;48.370;10.930;2022-09-09T12:24:54;97.07;;;52.35;;
13255;SDS011;37913;48.370;10.930;2022-09-09T12:27:31;93.15;;;51.72;;
13255;SDS011;37913;48.370;10.930;2022-09-09T12:30:04;93.22;;;51.05;;
13255;SDS011;37913;48.370;10.930;2022-09-09T12:32:36;101.65;;;52.78;;
13255;SDS011;37913;48.370;10.930;2022-09-09T12:35:04;104.80;;;53.08;;
13255;SDS011;37913;48.370;10.930;2022-09-09T12:37:39;106.30;;;53.20;;
13255;SDS011;37913;48.370;10.930;2022-09-09T12:40:18;101.15;;;51.88;;
13255;SDS011;37913;48.370;10.930;2022-09-09T12:42:47;113.90;;;77.55;;
13255;SDS011;37913;48.370;10.930;2022-09-09T12:45:15;93.32;;;51.95;;
13255;SDS011;37913;48.370;10.930;2022-09-09T12:47:45;96.95;;;52.60;;
13255;SDS011;37913;48.370;10.930;2022-09-09T12:50:16;97.38;;;50.00;;
13255;SDS011;37913;48.370;10.930;2022-09-09T12:52:48;100.28;;;52.63;;
13255;SDS011;37913;48.370;10.930;2022-09-09T12:55:18;102.28;;;50.75;;
13255;SDS011;37913;48.370;10.930;2022-09-09T12:57:50;82.30;;;49.72;;
13255;SDS011;37913;48.370;10.930;2022-09-09T13:00:19;81.25;;;49.70;;
13255;SDS011;37913;48.370;10.930;2022-09-09T13:02:48;92.57;;;50.47;;
13255;SDS011;37913;48.370;10.930;2022-09-09T13:05:18;87.93;;;49.95;;
13255;SDS011;37913;48.370;10.930;2022-09-09T13:07:48;83.07;;;48.65;;
13255;SDS011;37913;48.370;10.930;2022-09-09T13:10:19;91.32;;;50.05;;
13255;SDS011;37913;48.370;10.930;2022-09-09T13:12:51;96.20;;;50.17;;
13255;SDS011;37913;48.370;10.930;2022-09-09T13:15:20;101.38;;;49.22;;
13255;SDS011;37913;48.370;10.930;2022-09-09T13:17:49;93.05;;;47.17;;
13255;SDS011;37913;48.370;10.930;2022-09-09T13:20:21;96.25;;;49.03;;
13255;SDS011;37913;48.370;10.930;2022-09-09T13:22:53;88.65;;;47.10;;
13255;SDS011;37913;48.370;10.930;2022-09-09T13:25:24;83.18;;;46.03;;
13255;SDS011;37913;48.370;10.930;2022-09-09T13:27:55;89.95;;;49.88;;
13255;SDS011;37913;48.370;10.930;2022-09-09T13:30:25;99.55;;;53.05;;
13255;SDS011;37913;48.370;10.930;2022-09-09T13:33:01;92.28;;;52.08;;
13255;SDS011;37913;48.370;10.930;2022-09-09T13:35:29;93.30;;;50.60;;
13255;SDS011;37913;48.370;10.930;2022-09-09T13:37:59;95.72;;;52.92;;
13255;SDS011;37913;48.370;10.930;2022-09-09T13:40:32;96.20;;;56.22;;
13255;SDS011;37913;48.370;10.930;2022-09-09T13:42:59;97.07;;;61.00;;
13255;SDS011;37913;48.370;10.930;2022-09-09T13:45:27;95.40;;;64.72;;
13255;SDS011;37913;48.370;10.930;2022-09-09T13:47:54;99.43;;;71.03;;
13255;SDS011;37913;48.370;10.930;2022-09-09T13:50:22;99.13;;;72.82;;
13255;SDS011;37913;48.370;10.930;2022-09-09T13:52:51;97.30;;;68.30;;
13255;SDS011;37913;48.370;10.930;2022-09-09T13:55:21;103.38;;;64.20;;
13255;SDS011;37913;48.370;10.930;2022-09-09T13:57:52;103.22;;;61.28;;
13255;SDS011;37913;48.370;10.930;2022-09-09T14:00:21;94.57;;;56.13;;
13255;SDS011;37913;48.370;10.930;2022-09-09T14:02:49;92.13;;;51.47;;
13255;SDS011;37913;48.370;10.930;2022-09-09T14:05:17;86.68;;;48.25;;
13255;SDS011;37913;48.370;10.930;2022-09-09T14:07:44;89.10;;;47.50;;
13255;SDS011;37913;48.370;10.930;2022-09-09T14:10:11;91.97;;;47.65;;
13255;SDS011;37913;48.370;10.930;2022-09-09T14:12:40;108.28;;;49.83;;
13255;SDS011;37913;48.370;10.930;2022-09-09T14:15:07;87.03;;;43.97;;
13255;SDS011;37913;48.370;10.930;2022-09-09T14:17:37;92.43;;;46.28;;
13255;SDS011;37913;48.370;10.930;2022-09-09T14:20:04;84.30;;;42.22;;
13255;SDS011;37913;48.370;10.930;2022-09-09T14:22:34;88.85;;;42.00;;
13255;SDS011;37913;48.370;10.930;2022-09-09T14:25:01;82.28;;;39.75;;
13255;SDS011;37913;48.370;10.930;2022-09-09T14:27:29;91.63;;;40.00;;
13255;SDS011;37913;48.370;10.930;2022-09-09T14:29:57;87.30;;;39.45;;
13255;SDS011;37913;48.370;10.930;2022-09-09T14:32:25;93.80;;;40.85;;
13255;SDS011;37913;48.370;10.930;2022-09-09T14:34:52;105.53;;;43.00;;
13255;SDS011;37913;48.370;10.930;2022-09-09T14:37:19;86.43;;;39.80;;
13255;SDS011;37913;48.370;10.930;2022-09-09T14:39:46;90.28;;;40.75;;